Putten, Netherlands
Current Conditions -  °F | °C
As of 6:55 PM on Friday 21 Nov 2014 (Local Time) from EHDL Reporting Station
Haze Haze  
Wind Chill: 37°   Ceiling: Unl
Heat Index: 41°   Visibility: 6mi
Dew Point: 37°   Wind: 6mph
Humidity: 87%   Direction: 90°E
Pressure: 30.12"   Gusts: NA
Location:  52.26°N, 5.61°E
Report Text: EHDL 211755Z AUTO 09005KT 9000 BR SCT150 05/03 Q1020 BLU
Loading
Personal Weather Stations






























Interactive Weather Map New forecast layout! Learn more

10-Day Weather Forecast

Advertisements
Track Severe Weather on mobile